Tiempo atmosférico en la estación meteorológica de Palencia, Palencia (736 m.)



Fecha
DESCASC
Temp. máxima en grados centígrados (hora)
DESCASC
Temp. mínima en grados centígrados (hora)
DESCASC
Temp. media en grados centígrados
DESCASC
Racha de viento máxima en m/sg (hora)
DESCASC
Velocidad máxima media en intervalos de 10 minutos(hora)
DESCASC
Precipitaciones diarias en mm
DESCASC
Precipitaciones de 00:00 a 06:00 en mm
DESCASC
Precipitaciones de 06:00 a 12:00 en mm
DESCASC
Precipitaciones de 12:00 a 18:00 en mm
DESCASC
Precipitaciones de 18:00 a 24:00 en mm
DESCASC
18-08-2019 31 (16:40) 14.5 (07:30) 22.8 11.11 (17:30) 6.94 (17:30) 0 0 0 0 0
17-08-2019 34.6 (17:10) 11.1 (07:30) 22.8 9.44 (13:10) 5.28 (18:10) 0 0 0 0 0
16-08-2019 33.7 (17:00) 12.8 (07:40) 23.3 9.17 (17:00) 5 (16:00) 0 0 0 0 0
15-08-2019 30.3 (17:20) 14.9 (00:00) 22.6 7.5 (22:10) 3.61 (22:00) 0 0 0 0 0
14-08-2019 31.7 (18:00) 9 (00:00) 20.4 6.94 (15:50) 3.61 (23:20) 0 0 0 0 0
13-08-2019 26.2 (19:00) 9.2 (00:00) 17.7 6.67 (01:50) 2.78 (01:50) 0 0 0 0 0
12-08-2019 23.2 (17:50) 7.9 (00:00) 15.6 7.22 (16:10) 3.89 (20:30) 0 0 0 0 0
11-08-2019 25 (18:40) 12.4 (00:00) 18.7 8.89 (18:40) 5 (11:40) 5.4 5.4 0 0 0
10-08-2019 29.2 (18:10) 13.1 (00:00) 21.2 6.67 (22:40) 3.89 (20:30) 0 0 0 0 0
09-08-2019 27.8 (17:10) 16.1 (00:00) 21.9 13.89 (12:00) 8.33 (10:10) 0 0 0 0 0
08-08-2019 32.5 (18:10) 18.6 (00:00) 25.6 11.94 (19:20) 6.39 (19:20) 0 0 0 0 0
07-08-2019 27.7 (13:20) 15.4 (00:00) 21.6 13.06 (15:00) 5.83 (20:20) 0.2 0 0 0 0.2
06-08-2019 31.4 (16:00) 13.6 (00:00) 22.5 9.17 (22:20) 6.11 (22:20) 0 0 0 0 0
05-08-2019 32.9 (18:10) 14.5 (00:00) 23.7 7.5 (18:40) 3.33 (15:20) 0 0 0 0 0
04-08-2019 34.3 (17:20) 14.5 (00:00) 24.4 8.61 (16:00) 4.72 (22:10) 0 0 0 0 0
03-08-2019 34.5 (16:20) 12.9 (00:00) 23.7 4.72 (23:40) 2.5 (16:10) 0 0 0 0 0
02-08-2019 32.4 (17:50) 13.4 (00:00) 22.9 5.28 (18:30) 2.78 (18:20) 0 0 0 0 0
01-08-2019 31.3 (17:40) 14.1 (00:00) 22.7 6.67 (20:20) 4.17 (20:20) 0 0 0 0 0
31-07-2019 28.2 (16:40) 10.6 (00:00) 19.4 7.5 (17:30) 3.61 (17:30) 0 0 0 0 0
30-07-2019 25.6 (18:10) 10.7 (00:00) 18.2 7.78 (21:10) 4.17 (21:10) 0 0 0 0 0
29-07-2019 28.1 (16:30) 12.2 (00:00) 20.2 12.78 (17:50) 6.11 (17:50) 0 0 0 0 0
28-07-2019 27.3 (19:20) 8.3 (00:00) 17.8 6.11 (17:00) 3.33 (16:30) 0 0 0 0 0
27-07-2019 23 (17:50) 13.6 (00:00) 18.3 8.06 (16:10) 3.89 (18:00) 0.4 0 0 0.4 0
26-07-2019 28.7 (17:50) 15.5 (00:00) 22.1 8.89 (15:50) 3.89 (19:20) 0 0 0 0 0
25-07-2019 34.8 (16:40) 18.9 (00:00) 26.8 11.11 (15:20) 6.39 (17:00) 0 0 0 0 0
24-07-2019 35.9 (16:40) 16.6 (00:00) 26.3 9.17 (16:10) 4.17 (17:50) 0 0 0 0 0
23-07-2019 36.5 (18:10) 18.7 (00:00) 27.6 19.44 (20:10) 6.11 (20:10) 4.6 0 0 0 4.6
22-07-2019 37.2 (15:50) 17.1 (00:00) 27.2 11.67 (20:10) 5.56 (20:00) 0.4 0 0 0 0.4
21-07-2019 35 (19:10) 16.2 (00:00) 25.6 6.11 (01:00) 3.33 (15:20) 0 0 0 0 0

Gráficas

Temp. máximas Temp. mínimas Temp. medias Precipitaciones Rachas de viento máximas Velocidades máximas media en intervalos de 10 minutos

Datos horarios

Fecha y hora oficial Temperatura (ºC) Velocidad del viento (km/h) Dirección del viento Racha (km/h) Dirección de racha Precipitación (mm) Presión (hPa) Tendencia (hPa) Humedad (%)
2019-08-19 23:00:00 15.2 10 Nordeste 27 Nordeste 0 -- -- 74
2019-08-19 22:00:00 15.8 10 Nordeste 24 Nordeste 0 -- -- 73
2019-08-19 21:00:00 16.8 12 Nordeste 29 Nordeste 0 -- -- 69
2019-08-19 20:00:00 18.8 9 Nordeste 26 Nordeste 0 -- -- 63
2019-08-19 19:00:00 20 9 Nordeste 24 Nordeste 0 -- -- 59
2019-08-19 18:00:00 20.2 12 Nordeste 23 Nordeste 0 -- -- 61
2019-08-19 17:00:00 19.7 14 Nordeste 29 Este 0 -- -- 61
2019-08-19 16:00:00 21.5 12 Nordeste 27 Este 0 -- -- 58
2019-08-19 15:00:00 21.3 11 Nordeste 26 Nordeste 0 -- -- 57
2019-08-19 14:00:00 21.1 11 Nordeste 23 Este 0 -- -- 57
2019-08-19 13:00:00 20.6 12 Nordeste 23 Nordeste 0 -- -- 62
2019-08-19 12:00:00 19.7 10 Nordeste 27 Noroeste 0 -- -- 63
2019-08-19 11:00:00 17.3 12 Nordeste 27 Nordeste 0 -- -- 71
2019-08-19 10:00:00 16.1 11 Nordeste 32 Nordeste 0 -- -- 73
2019-08-19 09:00:00 15 13 Nordeste 23 Este 0 -- -- 77
2019-08-19 08:00:00 14.6 8 Nordeste 17 Este 0 -- -- 78
2019-08-19 07:00:00 14.7 9 Nordeste 22 Nordeste 0 -- -- 79
2019-08-19 06:00:00 14.8 8 Nordeste 22 Nordeste 0 -- -- 80
2019-08-19 05:00:00 14.8 7 Nordeste 18 Nordeste 0 -- -- 80
2019-08-19 04:00:00 14.7 9 Nordeste 21 Nordeste 0 -- -- 80
2019-08-19 03:00:00 14.6 8 Nordeste 18 Nordeste 0 -- -- 80
2019-08-19 02:00:00 14.5 8 Nordeste 18 Nordeste 0 -- -- 80
2019-08-19 01:00:00 14.9 6 Nordeste 19 Nordeste 0 -- -- 80
2019-08-19 00:00:00 15.8 4 Nordeste 18 Norte 0 -- -- 78
2019-08-18 23:00:00 18.2 4 Nordeste 14 Norte 0 -- -- 69
2019-08-18 22:00:00 20.6 3 Norte 14 Nordeste 0 -- -- 62
2019-08-18 21:00:00 24 7 Noroeste 17 Noroeste 0 -- -- 55
2019-08-18 20:00:00 24.9 10 Noroeste 27 Noroeste 0 -- -- 54
2019-08-18 19:00:00 25.7 17 Noroeste 33 Oeste 0 -- -- 54
2019-08-18 18:00:00 27.8 21 Noroeste 40 Oeste 0 -- -- 49
2019-08-18 17:00:00 30.2 17 Sudoeste 39 Oeste 0 -- -- 40
2019-08-18 16:00:00 30.7 15 Oeste 36 Oeste 0 -- -- 38
2019-08-18 15:00:00 29.1 13 Oeste 36 Oeste 0 -- -- 38
2019-08-18 14:00:00 27.2 10 Oeste 23 Noroeste 0 -- -- 45
2019-08-18 13:00:00 25.6 10 Sudoeste 25 Oeste 0 -- -- 48
2019-08-18 12:00:00 24 12 Oeste 24 Oeste 0 -- -- 52
2019-08-18 11:00:00 22.3 12 Oeste 22 Oeste 0 -- -- 55
2019-08-18 10:00:00 19.9 9 Oeste 17 Oeste 0 -- -- 62
2019-08-18 09:00:00 18.7 5 Sudeste 13 Sudeste 0 -- -- 66
2019-08-18 08:00:00 15.3 8 Sudeste 14 Sudeste 0 -- -- 74
2019-08-18 07:00:00 15.1 0 Calma 12 Sudoeste 0 -- -- 71
2019-08-18 06:00:00 16.2 5 Sudoeste 10 Sudoeste 0 -- -- 67
2019-08-18 05:00:00 17.1 2 Sur 6 Sudoeste 0 -- -- 68
2019-08-18 04:00:00 18 2 Sudeste 8 Oeste 0 -- -- 63
2019-08-18 03:00:00 19.3 7 Oeste 16 Oeste 0 -- -- 57
2019-08-18 02:00:00 19.3 0 Calma 4 Sur 0 -- -- 53
2019-08-18 01:00:00 21.1 0 Calma 13 Noroeste 0 -- -- 48
2019-08-18 00:00:00 24.6 11 Oeste 20 Oeste 0 -- -- 38
2019-08-17 23:00:00 25.2 14 Oeste 21 Oeste 0 -- -- 35
2019-08-17 22:00:00 26 10 Oeste 22 Oeste 0 -- -- 30
2019-08-17 21:00:00 29.3 13 Oeste 27 Sudoeste 0 -- -- 26
2019-08-17 20:00:00 32.7 12 Oeste 31 Oeste 0 -- -- 24
2019-08-17 19:00:00 33.8 15 Oeste 33 Oeste 0 -- -- 24
2019-08-17 18:00:00 34.5 13 Oeste 31 Oeste 0 -- -- 22
2019-08-17 17:00:00 34.4 14 Oeste 31 Noroeste 0 -- -- 21
2019-08-17 16:00:00 34.1 9 Oeste 26 Oeste 0 -- -- 23
2019-08-17 15:00:00 33.2 9 Sudoeste 23 Oeste 0 -- -- 23
2019-08-17 14:00:00 31.2 4 Sudoeste 34 Oeste 0 -- -- 32
2019-08-17 13:00:00 29.1 6 Oeste 21 Oeste 0 -- -- 38
2019-08-17 12:00:00 27 11 Oeste 19 Oeste 0 -- -- 43
2019-08-17 11:00:00 23.8 8 Noroeste 21 Oeste 0 -- -- 54
2019-08-17 10:00:00 17.6 2 Norte 7 Nordeste 0 -- -- 73
2019-08-17 09:00:00 15.4 0 Calma 7 Sudeste 0 -- -- 78
2019-08-17 08:00:00 11.6 0 Calma -- -- 0 -- -- 84
2019-08-17 07:00:00 11.8 0 Calma -- -- 0 -- -- 80
2019-08-17 06:00:00 12.9 0 Calma 8 Sudoeste 0 -- -- 77
2019-08-17 05:00:00 14.2 0 Calma -- -- 0 -- -- 77
2019-08-17 04:00:00 15 0 Calma 6 Oeste 0 -- -- 72
2019-08-17 03:00:00 17.3 0 Calma 6 Noroeste 0 -- -- 68
2019-08-17 02:00:00 19.5 3 Noroeste 16 Noroeste 0 -- -- 59
2019-08-17 01:00:00 22.1 10 Noroeste 30 Oeste 0 -- -- 50
2019-08-17 00:00:00 23.2 15 Noroeste 26 Oeste 0 -- -- 38
2019-08-16 23:00:00 20.4 3 Sudoeste 6 Sudoeste 0 -- -- 52
2019-08-16 22:00:00 22.9 0 Calma 5 Sudoeste 0 -- -- 37
2019-08-16 21:00:00 28.2 3 Oeste 12 Oeste 0 -- -- 30
2019-08-16 20:00:00 32.3 9 Noroeste 25 Oeste 0 -- -- 24
2019-08-16 19:00:00 33.2 12 Noroeste 25 Oeste 0 -- -- 27
2019-08-16 18:00:00 33.4 13 Oeste 31 Oeste 0 -- -- 26
2019-08-16 17:00:00 33.7 14 Oeste 33 Oeste 0 -- -- 28
2019-08-16 16:00:00 33.2 18 Oeste 31 Oeste 0 -- -- 33
2019-08-16 15:00:00 32.3 6 Sudoeste 25 Oeste 0 -- -- 35
2019-08-16 14:00:00 30.8 6 Oeste 15 Oeste 0 -- -- 37
2019-08-16 13:00:00 28.6 3 Este 6 Noroeste 0 -- -- 44
2019-08-16 12:00:00 26.2 3 Sudeste 10 Sudeste 0 -- -- 48
2019-08-16 11:00:00 22.8 4 Sur 10 Sur 0 -- -- 58
2019-08-16 10:00:00 17.3 3 Noroeste 5 Noroeste 0 -- -- 74
2019-08-16 09:00:00 15.4 0 Calma 4 Noroeste 0 -- -- 81
2019-08-16 08:00:00 13 0 Calma 4 Oeste 0 -- -- 87
2019-08-16 07:00:00 13.4 3 Oeste 9 Noroeste 0 -- -- 86
2019-08-16 06:00:00 14.2 5 Noroeste 9 Noroeste 0 -- -- 85
2019-08-16 05:00:00 14.7 4 Noroeste 8 Noroeste 0 -- -- 83
2019-08-16 04:00:00 15.6 3 Noroeste 11 Noroeste 0 -- -- 79
2019-08-16 03:00:00 16.8 3 Norte 8 Nordeste 0 -- -- 70
2019-08-16 02:00:00 18 4 Este 10 Nordeste 0 -- -- 65
2019-08-16 01:00:00 18.8 2 Norte 8 Sudoeste 0 -- -- 65
2019-08-16 00:00:00 20.3 3 Nordeste 15 Nordeste 0 -- -- 62
2019-08-15 23:00:00 21.5 4 Este 27 Este 0 -- -- 58
2019-08-15 22:00:00 23.3 13 Este 27 Este 0 -- -- 51
2019-08-15 21:00:00 25.8 10 Este 22 Este 0 -- -- 45
2019-08-15 20:00:00 29.2 3 Nordeste 11 Nordeste 0 -- -- 41
2019-08-15 19:00:00 29.6 3 Este 16 Nordeste 0 -- -- 38
2019-08-15 18:00:00 29.9 5 Norte 18 Norte 0 -- -- 38
2019-08-15 17:00:00 29.8 6 Norte 19 Norte 0 -- -- 38
2019-08-15 16:00:00 29.6 5 Norte 17 Noroeste 0 -- -- 40
2019-08-15 15:00:00 28.5 7 Noroeste 18 Noroeste 0 -- -- 39
2019-08-15 14:00:00 27.5 5 Norte 14 Noroeste 0 -- -- 43
2019-08-15 13:00:00 26.1 6 Norte 14 Norte 0 -- -- 48
2019-08-15 12:00:00 24.6 5 Este 10 Nordeste 0 -- -- 59
2019-08-15 11:00:00 22.5 5 Este 12 Este 0 -- -- 69
2019-08-15 10:00:00 18.9 5 Nordeste 13 Nordeste 0 -- -- 79
2019-08-15 09:00:00 16.9 3 Noroeste 7 Noroeste 0 -- -- 84
2019-08-15 08:00:00 15.1 0 Calma 5 Norte 0 -- -- 88
2019-08-15 07:00:00 15.7 3 Noroeste 8 Nordeste 0 -- -- 87
2019-08-15 06:00:00 16.4 0 Calma 10 Nordeste 0 -- -- 83
2019-08-15 05:00:00 17.1 3 Nordeste 13 Nordeste 0 -- -- 82
2019-08-15 04:00:00 17.1 3 Norte 17 Nordeste 0 -- -- 76
2019-08-15 03:00:00 17.4 0 Calma 7 Nordeste 0 -- -- 71
2019-08-15 02:00:00 18.9 3 Norte 12 Nordeste 0 -- -- 67
2019-08-15 01:00:00 20 4 Noroeste 10 Noroeste 0 -- -- 64
2019-08-15 00:00:00 21.5 6 Noroeste 20 Noroeste 0 -- -- 60
2019-08-14 23:00:00 22.6 5 Noroeste 13 Noroeste 0 -- -- 57
2019-08-14 22:00:00 24.4 4 Noroeste 9 Noroeste 0 -- -- 49
2019-08-14 21:00:00 28.2 0 Calma 13 Norte 0 -- -- 43
2019-08-14 20:00:00 30.8 6 Norte 22 Noroeste 0 -- -- 36
2019-08-14 19:00:00 31.2 8 Noroeste 18 Oeste 0 -- -- 33
2019-08-14 18:00:00 31.7 9 Oeste 22 Oeste 0 -- -- 31
2019-08-14 17:00:00 31 11 Noroeste 22 Oeste 0 -- -- 30
2019-08-14 16:00:00 30.5 10 Oeste 25 Noroeste 0 -- -- 31
2019-08-14 15:00:00 29 10 Noroeste 23 Noroeste 0 -- -- 33
2019-08-14 14:00:00 27.9 8 Oeste 23 Oeste 0 -- -- 33
2019-08-14 13:00:00 26.6 10 Noroeste 21 Oeste 0 -- -- 32
2019-08-14 12:00:00 23.2 3 Nordeste 10 Norte 0 -- -- 44
2019-08-14 11:00:00 19.5 0 Calma 8 Norte 0 -- -- 55
2019-08-14 10:00:00 15 3 Norte 11 Sudeste 0 -- -- 69
2019-08-14 09:00:00 13 5 Sudeste 9 Sudeste 0 -- -- 81
2019-08-14 08:00:00 9.4 0 Calma 4 Noroeste 0 -- -- 90
2019-08-14 07:00:00 9.2 2 Sudoeste 3 Noroeste 0 -- -- 89
2019-08-14 06:00:00 9.9 0 Calma 5 Sudoeste 0 -- -- 87
2019-08-14 05:00:00 10.5 0 Calma 5 Noroeste 0 -- -- 85
2019-08-14 04:00:00 11.1 4 Noroeste 5 Noroeste 0 -- -- 83
2019-08-14 03:00:00 12.4 2 Oeste 5 Oeste 0 -- -- 77
2019-08-14 02:00:00 13.1 4 Noroeste 7 Noroeste 0 -- -- 74
2019-08-14 01:00:00 13.1 0 Calma 10 Oeste 0 -- -- 64
2019-08-14 00:00:00 14 2 Norte 11 Noroeste 0 -- -- 67
2019-08-13 23:00:00 15.6 3 Sudoeste 10 Sudoeste 0 -- -- 54
2019-08-13 22:00:00 17.8 8 Sudoeste 9 Sudoeste 0 -- -- 45
2019-08-13 21:00:00 22.7 2 Oeste 5 Sudoeste 0 -- -- 37
2019-08-13 20:00:00 25.3 0 Calma 8 Nordeste 0 -- -- 36
2019-08-13 19:00:00 26.2 4 Oeste 14 Noroeste 0 -- -- 28
2019-08-13 18:00:00 25.5 6 Norte 16 Noroeste 0 -- -- 31
2019-08-13 17:00:00 25.1 8 Norte 19 Norte 0 -- -- 29
2019-08-13 16:00:00 24.9 6 Noroeste 19 Norte 0 -- -- 31
2019-08-13 15:00:00 23.4 8 Noroeste 17 Norte 0 -- -- 37
2019-08-13 14:00:00 22.4 8 Oeste 18 Noroeste 0 -- -- 41
2019-08-13 13:00:00 21.3 5 Sudoeste 19 Nordeste 0 -- -- 47
2019-08-13 12:00:00 19.4 5 Este 15 Nordeste 0 -- -- 50
2019-08-13 11:00:00 17.5 5 Norte 16 Este 0 -- -- 56
2019-08-13 10:00:00 13.7 4 Nordeste 14 Nordeste 0 -- -- 69
2019-08-13 09:00:00 11.7 3 Nordeste 8 Nordeste 0 -- -- 78
2019-08-13 08:00:00 9.4 4 Noroeste 9 Noroeste 0 -- -- 87
2019-08-13 07:00:00 9.4 3 Noroeste 7 Nordeste 0 -- -- 83
2019-08-13 06:00:00 10.6 4 Este 7 Nordeste 0 -- -- 79
2019-08-13 05:00:00 11.5 3 Nordeste 13 Nordeste 0 -- -- 75
2019-08-13 04:00:00 12.2 5 Nordeste 15 Nordeste 0 -- -- 72
2019-08-13 03:00:00 12.6 7 Nordeste 22 Este 0 -- -- 70
2019-08-13 02:00:00 13 10 Este 24 Este 0 -- -- 71
2019-08-13 01:00:00 13.4 8 Nordeste 22 Este 0 -- -- 67
2019-08-13 00:00:00 13.9 6 Nordeste 23 Nordeste 0 -- -- 65
2019-08-12 23:00:00 14.9 11 Nordeste 25 Este 0 -- -- 61
2019-08-12 22:00:00 16.7 9 Nordeste 24 Nordeste 0 -- -- 57
2019-08-12 21:00:00 17.9 11 Este 25 Este 0 -- -- 51
2019-08-12 20:00:00 19.7 8 Nordeste 21 Nordeste 0 -- -- 44
2019-08-12 19:00:00 21.5 10 Nordeste 22 Nordeste 0 -- -- 39
2019-08-12 18:00:00 23 8 Nordeste 20 Nordeste 0 -- -- 37
2019-08-12 17:00:00 22.6 10 Nordeste 26 Norte 0 -- -- 37
2019-08-12 16:00:00 22.8 8 Noroeste 21 Norte 0 -- -- 41
2019-08-12 15:00:00 21.5 9 Norte 19 Noroeste 0 -- -- 42
2019-08-12 14:00:00 20.7 3 Norte 17 Sudeste 0 -- -- 45
2019-08-12 13:00:00 18.8 4 Nordeste 12 Este 0 -- -- 52
2019-08-12 12:00:00 17.8 5 Este 12 Norte 0 -- -- 61
2019-08-12 11:00:00 15.4 6 Noroeste 13 Noroeste 0 -- -- 63
2019-08-12 10:00:00 12 3 Norte 8 Norte 0 -- -- 82
2019-08-12 09:00:00 10.6 0 Calma 4 Norte 0 -- -- 88
2019-08-12 08:00:00 8.3 0 Calma 3 Norte 0 -- -- 92
2019-08-12 07:00:00 8.6 0 Calma 4 Norte 0 -- -- 89
2019-08-12 06:00:00 9.6 0 Calma 8 Noroeste 0 -- -- 87
2019-08-12 05:00:00 10.6 6 Noroeste 10 Noroeste 0 -- -- 87
2019-08-12 04:00:00 11.3 4 Noroeste 9 Noroeste 0 -- -- 83
2019-08-12 03:00:00 12.2 3 Noroeste 12 Este 0 -- -- 77
2019-08-12 02:00:00 12.6 6 Nordeste 19 Norte 0 -- -- 76
2019-08-12 01:00:00 12.8 6 Este 16 Nordeste 0 -- -- 76
2019-08-12 00:00:00 13.7 4 Norte 17 Nordeste 0 -- -- 72
2019-08-11 23:00:00 14.5 6 Norte 16 Noroeste 0 -- -- 69
2019-08-11 22:00:00 16.3 6 Norte 27 Norte 0 -- -- 68
2019-08-11 21:00:00 20.7 10 Oeste 23 Norte 0 -- -- 43
2019-08-11 20:00:00 24.2 9 Sudoeste 25 Oeste 0 -- -- 30
2019-08-11 19:00:00 24.8 12 Oeste 32 Oeste 0 -- -- 33
2019-08-11 18:00:00 24.4 10 Oeste 27 Oeste 0 -- -- 37
2019-08-11 17:00:00 24.5 10 Oeste 26 Oeste 0 -- -- 40
2019-08-11 16:00:00 23.4 12 Oeste 28 Oeste 0 -- -- 45
2019-08-11 15:00:00 22.5 16 Oeste 26 Oeste 0 -- -- 52
2019-08-11 14:00:00 20.8 12 Oeste 26 Oeste 0 -- -- 60
2019-08-11 13:00:00 20.3 11 Noroeste 21 Noroeste 0 -- -- 63
2019-08-11 12:00:00 18.8 12 Oeste 28 Oeste 0 -- -- 73
2019-08-11 11:00:00 17.5 8 Noroeste 12 Noroeste 0 -- -- 83
2019-08-11 10:00:00 15.3 3 Oeste 7 Sudoeste 0 -- -- 89
2019-08-11 09:00:00 13.4 0 Calma 11 Nordeste 0 -- -- 93
2019-08-11 08:00:00 12.4 3 Este 8 Noroeste 0 -- -- 93
2019-08-11 07:00:00 12.7 5 Noroeste 9 Noroeste 0 -- -- 92
2019-08-11 06:00:00 13 0 Calma 16 Noroeste 1.6 -- -- 92
2019-08-11 05:00:00 13.7 3 Noroeste 10 Noroeste 1.2 -- -- 90
2019-08-11 04:00:00 14.5 3 Noroeste 14 Norte 2.6 -- -- 87
2019-08-11 03:00:00 15.4 3 Norte 22 Nordeste 0 -- -- 79
2019-08-11 02:00:00 15.7 6 Nordeste 15 Nordeste 0 -- -- 74
2019-08-11 01:00:00 15.7 5 Nordeste 15 Nordeste 0 -- -- 74
2019-08-11 00:00:00 16.5 5 Nordeste 16 Norte 0 -- -- 71
2019-08-10 23:00:00 18.7 6 Nordeste 24 Nordeste 0 -- -- 65
2019-08-10 22:00:00 22.4 4 Noroeste 15 Oeste 0 -- -- 37
2019-08-10 21:00:00 23.5 7 Noroeste 23 Oeste 0 -- -- 33
2019-08-10 20:00:00 26.2 12 Noroeste 23 Oeste 0 -- -- 28
2019-08-10 19:00:00 28.5 9 Sudoeste 19 Sudoeste 0 -- -- 26
2019-08-10 18:00:00 29.1 9 Sudoeste 18 Oeste 0 -- -- 26
2019-08-10 17:00:00 28.4 6 Oeste 22 Oeste 0 -- -- 30
2019-08-10 16:00:00 27.1 7 Oeste 15 Sudoeste 0 -- -- 33
2019-08-10 15:00:00 24.9 7 Este 16 Sudeste 0 -- -- 43
2019-08-10 14:00:00 24.1 4 Sur 12 Sudeste 0 -- -- 47
2019-08-10 13:00:00 22.7 7 Sudeste 15 Sudeste 0 -- -- 52
2019-08-10 12:00:00 20.9 5 Sudeste 9 Sudeste 0 -- -- 61
2019-08-10 11:00:00 18.7 2 Nordeste 10 Noroeste 0 -- -- 64
2019-08-10 10:00:00 17 3 Este 10 Sudeste 0 -- -- 74
2019-08-10 09:00:00 14.6 5 Sudeste 10 Sudeste 0 -- -- 85
2019-08-10 08:00:00 13.7 0 Calma 9 Sudeste 0 -- -- 84
2019-08-10 07:00:00 13.3 0 Calma 11 Sudeste 0 -- -- 85
2019-08-10 06:00:00 13.2 4 Sudeste 10 Sudeste 0 -- -- 86
2019-08-10 05:00:00 13.7 4 Sudeste 14 Oeste 0 -- -- 84
2019-08-10 04:00:00 13.2 3 Sudeste 13 Sudeste 0 -- -- 86
2019-08-10 03:00:00 13.4 4 Sudeste 8 Sudeste 0 -- -- 86
2019-08-10 02:00:00 14.3 3 Sur 11 Sudoeste 0 -- -- 84
2019-08-10 01:00:00 15.2 7 Sudoeste 13 Sudoeste 0 -- -- 86
2019-08-10 00:00:00 16.1 4 Sudoeste 14 Sudoeste 0 -- -- 82
2019-08-09 23:00:00 16.8 5 Sur 16 Sudoeste 0 -- -- 80
2019-08-09 22:00:00 18.3 7 Sudoeste 24 Sudoeste 0 -- -- 74
2019-08-09 21:00:00 20.9 10 Sur 30 Oeste 0 -- -- 64
2019-08-09 20:00:00 25.2 20 Oeste 36 Oeste 0 -- -- 38
2019-08-09 19:00:00 25.7 21 Oeste 39 Oeste 0 -- -- 37
2019-08-09 18:00:00 24.9 25 Oeste 41 Oeste 0 -- -- 36
2019-08-09 17:00:00 27.2 23 Oeste 43 Oeste 0 -- -- 35
2019-08-09 16:00:00 26.4 17 Sudoeste 41 Oeste 0 -- -- 45
2019-08-09 15:00:00 24.7 21 Oeste 40 Oeste 0 -- -- 52
2019-08-09 14:00:00 25.4 22 Sudoeste 49 Oeste 0 -- -- 54
2019-08-09 13:00:00 23.6 27 Oeste 48 Oeste 0 -- -- 59
2019-08-09 12:00:00 21.3 26 Oeste 50 Oeste 0 -- -- 72
2019-08-09 11:00:00 18.8 18 Oeste 50 Oeste 0 -- -- 86
2019-08-09 10:00:00 20.7 24 Oeste 44 Oeste 0 -- -- 80
2019-08-09 09:00:00 20.8 9 Sudoeste 23 Oeste 0 -- -- 75
2019-08-09 08:00:00 19.5 5 Sur 14 Sudoeste 0 -- -- 77
2019-08-09 07:00:00 19.5 5 Sur 17 Sudoeste 0 -- -- 74
2019-08-09 06:00:00 19.5 6 Sudoeste 21 Sudoeste 0 -- -- 74
2019-08-09 05:00:00 20.3 9 Sudoeste 22 Sudoeste 0 -- -- 70
2019-08-09 04:00:00 20.8 9 Sudoeste 19 Sudoeste 0 -- -- 68
2019-08-09 03:00:00 21.6 10 Sudoeste 21 Sudoeste 0 -- -- 65
2019-08-09 02:00:00 21.8 10 Sudoeste 20 Oeste 0 -- -- 63
2019-08-09 01:00:00 22.4 8 Sudoeste 22 Sudoeste 0 -- -- 62
2019-08-09 00:00:00 23.3 9 Oeste 26 Oeste 0 -- -- 61
2019-08-08 23:00:00 24.7 14 Oeste 32 Sudoeste 0 -- -- 54
2019-08-08 22:00:00 25.5 13 Oeste 35 Oeste 0 -- -- 50
2019-08-08 21:00:00 27.5 18 Oeste 41 Oeste 0 -- -- 45
2019-08-08 20:00:00 29.9 20 Oeste 43 Sudoeste 0 -- -- 41
2019-08-08 19:00:00 31.3 22 Oeste 39 Oeste 0 -- -- 37
2019-08-08 18:00:00 32.2 15 Sudoeste 35 Oeste 0 -- -- 41
2019-08-08 17:00:00 31.4 13 Sudoeste 29 Sudoeste 0 -- -- 43
2019-08-08 16:00:00 29.9 8 Oeste 31 Oeste 0 -- -- 46
2019-08-08 15:00:00 29.7 12 Oeste 23 Sudoeste 0 -- -- 48
2019-08-08 14:00:00 26.9 8 Sudoeste 22 Noroeste 0 -- -- 54
2019-08-08 13:00:00 26.1 7 Noroeste 22 Oeste 0 -- -- 60
2019-08-08 12:00:00 23.4 12 Oeste 22 Oeste 0 -- -- 69
2019-08-08 11:00:00 21.7 9 Sudoeste 23 Sur 0 -- -- 74
2019-08-08 10:00:00 20.4 4 Sudoeste 27 Sudoeste 0 -- -- 79
2019-08-08 09:00:00 20.2 9 Sudoeste 18 Sudoeste 0 -- -- 71
2019-08-08 08:00:00 19.3 5 Sur 12 Sudoeste 0 -- -- 76
2019-08-08 07:00:00 18.8 0 Calma 7 Sudeste 0 -- -- 80
2019-08-08 06:00:00 18.6 2 Sudeste 5 Sudeste 0 -- -- 83
2019-08-08 05:00:00 18.7 0 Calma 4 Sur 0 -- -- 81
2019-08-08 04:00:00 18.9 2 Sur 8 Sudoeste 0 -- -- 79
2019-08-08 03:00:00 18.7 0 Calma 5 Sur 0 -- -- 82
2019-08-08 02:00:00 18.6 3 Sudoeste 9 Sudoeste 0 -- -- 82
2019-08-08 01:00:00 18.7 0 Calma 4 Sudoeste 0 -- -- 83
2019-08-08 00:00:00 18.6 0 Calma 7 Noroeste 0 -- -- 83
2019-08-07 23:00:00 18.8 6 Oeste 25 Oeste 0 -- -- 81
2019-08-07 22:00:00 19.1 15 Oeste 30 Oeste 0 -- -- 80
2019-08-07 21:00:00 20.3 14 Noroeste 33 Oeste 0.2 -- -- 76
2019-08-07 20:00:00 22.7 12 Noroeste 29 Noroeste 0 -- -- 59
2019-08-07 19:00:00 23.9 8 Noroeste 23 Noroeste 0 -- -- 53
2019-08-07 18:00:00 25.1 17 Noroeste 27 Norte 0 -- -- 49
2019-08-07 17:00:00 26 10 Noroeste 18 Noroeste 0 -- -- 43
2019-08-07 16:00:00 23 9 Oeste 36 Oeste 0 -- -- 60
2019-08-07 15:00:00 26.4 17 Oeste 47 Oeste 0 -- -- 38
2019-08-07 14:00:00 27.1 12 Oeste 27 Oeste 0 -- -- 39
2019-08-07 13:00:00 27.2 8 Noroeste 19 Noroeste 0 -- -- 40
2019-08-07 12:00:00 24.6 5 Oeste 13 Oeste 0 -- -- 47
2019-08-07 11:00:00 22.5 5 Norte 9 Norte 0 -- -- 66
2019-08-07 10:00:00 19.7 2 Este 6 Sudeste 0 -- -- 78
2019-08-07 09:00:00 17.9 0 Calma 6 Sudeste 0 -- -- 86
2019-08-07 08:00:00 15.7 0 Calma 4 Sur 0 -- -- 91
2019-08-07 07:00:00 15.4 0 Calma 6 Oeste 0 -- -- 87
2019-08-07 06:00:00 16.2 3 Oeste 10 Noroeste 0 -- -- 86
2019-08-07 05:00:00 17.6 2 Oeste 11 Noroeste 0 -- -- 82
2019-08-07 04:00:00 18.5 0 Calma 10 Sur 0 -- -- 77
2019-08-07 03:00:00 19.1 2 Sur 11 Sudeste 0 -- -- 76
2019-08-07 02:00:00 19.2 2 Sur 12 Este 0 -- -- 75
2019-08-07 01:00:00 19.5 5 Sudeste 21 Este 0 -- -- 75
2019-08-07 00:00:00 20.2 7 Nordeste 28 Nordeste 0 -- -- 71
2019-08-06 23:00:00 22.2 8 Nordeste 33 Noroeste 0 -- -- 64
2019-08-06 22:00:00 25.7 17 Noroeste 30 Noroeste 0 -- -- 44
2019-08-06 21:00:00 27.1 9 Noroeste 26 Oeste 0 -- -- 37
2019-08-06 20:00:00 28.7 5 Noroeste 20 Oeste 0 -- -- 34
2019-08-06 19:00:00 29.2 11 Oeste 24 Oeste 0 -- -- 34
2019-08-06 18:00:00 30.2 13 Oeste 26 Oeste 0 -- -- 33
2019-08-06 17:00:00 30.7 10 Oeste 27 Oeste 0 -- -- 35
2019-08-06 16:00:00 31.4 11 Oeste 26 Oeste 0 -- -- 38
2019-08-06 15:00:00 30.3 11 Noroeste 26 Noroeste 0 -- -- 38
2019-08-06 14:00:00 30.3 10 Noroeste 22 Noroeste 0 -- -- 41
2019-08-06 13:00:00 28.2 6 Oeste 13 Sudoeste 0 -- -- 46
2019-08-06 12:00:00 25.1 4 Este 9 Sudeste 0 -- -- 59
2019-08-06 11:00:00 22.5 3 Sudeste 11 Sur 0 -- -- 67
2019-08-06 10:00:00 18.9 6 Sudeste 9 Sudeste 0 -- -- 75
2019-08-06 09:00:00 17.2 5 Sudeste 8 Sudeste 0 -- -- 77
2019-08-06 08:00:00 14.5 0 Calma 4 Oeste 0 -- -- 86
2019-08-06 07:00:00 13.7 3 Oeste 4 Oeste 0 -- -- 84
2019-08-06 06:00:00 14.3 2 Sudoeste 5 Oeste 0 -- -- 81
2019-08-06 05:00:00 14.9 3 Oeste 6 Noroeste 0 -- -- 78
2019-08-06 04:00:00 15.8 4 Noroeste 12 Noroeste 0 -- -- 79
2019-08-06 03:00:00 17.6 5 Noroeste 9 Noroeste 0 -- -- 79
2019-08-06 02:00:00 18.8 0 Calma 9 Este 0 -- -- 76
2019-08-06 01:00:00 20.1 3 Norte 8 Nordeste 0 -- -- 72
2019-08-06 00:00:00 22.2 4 Norte 14 Norte 0 -- -- 66
2019-08-05 23:00:00 22.8 4 Noroeste 10 Norte 0 -- -- 62
2019-08-05 22:00:00 25.1 2 Noroeste 10 Noroeste 0 -- -- 43
2019-08-05 21:00:00 29.6 9 Noroeste 18 Oeste 0 -- -- 31
2019-08-05 20:00:00 32 10 Noroeste 23 Noroeste 0 -- -- 30
2019-08-05 19:00:00 32.6 12 Norte 27 Noroeste 0 -- -- 31
2019-08-05 18:00:00 32.8 10 Norte 21 Noroeste 0 -- -- 32
2019-08-05 17:00:00 32.5 6 Norte 18 Norte 0 -- -- 35
2019-08-05 16:00:00 32 9 Noroeste 19 Norte 0 -- -- 36
2019-08-05 15:00:00 30.9 6 Nordeste 19 Noroeste 0 -- -- 39
2019-08-05 14:00:00 29.4 5 Nordeste 13 Este 0 -- -- 42
2019-08-05 13:00:00 28.2 8 Noroeste 15 Noroeste 0 -- -- 46
2019-08-05 12:00:00 25.8 5 Noroeste 11 Norte 0 -- -- 54
2019-08-05 11:00:00 23.2 2 Sudeste 6 Oeste 0 -- -- 65
2019-08-05 10:00:00 18.6 3 Norte 8 Norte 0 -- -- 79
2019-08-05 09:00:00 17.4 0 Calma 4 Norte 0 -- -- 83
2019-08-05 08:00:00 14.9 0 Calma 3 Noroeste 0 -- -- 91
2019-08-05 07:00:00 14.7 2 Noroeste 5 Norte 0 -- -- 90
2019-08-05 06:00:00 15.3 2 Norte 4 Norte 0 -- -- 88
2019-08-05 05:00:00 16.3 0 Calma 10 Nordeste 0 -- -- 84
2019-08-05 04:00:00 17 0 Calma 8 Este 0 -- -- 84
2019-08-05 03:00:00 17.5 4 Nordeste 11 Este 0 -- -- 82
2019-08-05 02:00:00 18 4 Nordeste 10 Norte 0 -- -- 80
2019-08-05 01:00:00 18.7 3 Norte 16 Norte 0 -- -- 77
2019-08-05 00:00:00 20.5 5 Nordeste 16 Noroeste 0 -- -- 69
2019-08-04 23:00:00 25.4 11 Norte 27 Oeste 0 -- -- 48
2019-08-04 22:00:00 27.3 14 Oeste 23 Oeste 0 -- -- 31
2019-08-04 21:00:00 30 12 Oeste 22 Noroeste 0 -- -- 30
2019-08-04 20:00:00 32.6 11 Oeste 26 Oeste 0 -- -- 29
2019-08-04 19:00:00 33.5 13 Oeste 28 Oeste 0 -- -- 27
2019-08-04 18:00:00 33.8 8 Noroeste 29 Oeste 0 -- -- 29
2019-08-04 17:00:00 33.8 6 Noroeste 28 Oeste 0 -- -- 32
2019-08-04 16:00:00 33 13 Oeste 31 Oeste 0 -- -- 33
2019-08-04 15:00:00 31.9 12 Noroeste 27 Oeste 0 -- -- 37
2019-08-04 14:00:00 29.8 9 Noroeste 19 Oeste 0 -- -- 41
2019-08-04 13:00:00 27.5 5 Noroeste 10 Noroeste 0 -- -- 50
2019-08-04 12:00:00 25.5 3 Oeste 11 Norte 0 -- -- 59
2019-08-04 11:00:00 22.9 3 Sudoeste 7 Nordeste 0 -- -- 66
2019-08-04 10:00:00 19.1 3 Este 9 Nordeste 0 -- -- 77
2019-08-04 09:00:00 17.7 4 Nordeste 6 Nordeste 0 -- -- 81
2019-08-04 08:00:00 15 2 Norte 5 Sudoeste 0 -- -- 86
2019-08-04 07:00:00 15 0 Calma 5 Nordeste 0 -- -- 81
2019-08-04 06:00:00 16.6 3 Este 8 Este 0 -- -- 76
2019-08-04 05:00:00 17.7 3 Nordeste 9 Nordeste 0 -- -- 69
2019-08-04 04:00:00 17.8 3 Nordeste 11 Nordeste 0 -- -- 70
2019-08-04 03:00:00 18.2 2 Nordeste 13 Norte 0 -- -- 68
2019-08-04 02:00:00 19.1 8 Noroeste 15 Norte 0 -- -- 67
2019-08-04 01:00:00 20.6 4 Norte 9 Noroeste 0 -- -- 68
2019-08-04 00:00:00 22.5 3 Nordeste 17 Nordeste 0 -- -- 66
2019-08-03 23:00:00 24.6 4 Norte 14 Norte 0 -- -- 57
2019-08-03 22:00:00 25.2 5 Oeste 9 Oeste 0 -- -- 37
2019-08-03 21:00:00 30.9 3 Noroeste 6 Nordeste 0 -- -- 38
2019-08-03 20:00:00 32.6 3 Nordeste 8 Nordeste 0 -- -- 28
2019-08-03 19:00:00 33.5 3 Norte 10 Nordeste 0 -- -- 28
2019-08-03 18:00:00 32.9 3 Norte 9 Oeste 0 -- -- 27
2019-08-03 17:00:00 32.9 5 Noroeste 17 Norte 0 -- -- 28
2019-08-03 16:00:00 33.9 4 Nordeste 13 Nordeste 0 -- -- 28
2019-08-03 15:00:00 32.5 5 Nordeste 13 Nordeste 0 -- -- 31
2019-08-03 14:00:00 32.1 4 Norte 14 Norte 0 -- -- 33
2019-08-03 13:00:00 30.2 3 Sudeste 9 Sudeste 0 -- -- 37
2019-08-03 12:00:00 27.8 5 Sudeste 10 Sudeste 0 -- -- 44
2019-08-03 11:00:00 23.8 3 Este 10 Norte 0 -- -- 54
2019-08-03 10:00:00 19.1 5 Norte 9 Norte 0 -- -- 66
2019-08-03 09:00:00 17.4 2 Este 4 Este 0 -- -- 71
2019-08-03 08:00:00 14 0 Calma 4 Sudoeste 0 -- -- 85
2019-08-03 07:00:00 13.2 0 Calma 4 Sudoeste 0 -- -- 83
2019-08-03 06:00:00 14.5 0 Calma 6 Noroeste 0 -- -- 81
2019-08-03 05:00:00 15.2 3 Noroeste 5 Noroeste 0 -- -- 79
2019-08-03 04:00:00 16.2 0 Calma 6 Nordeste 0 -- -- 75
2019-08-03 03:00:00 18 3 Norte 8 Noroeste 0 -- -- 73
2019-08-03 02:00:00 19.6 3 Noroeste 8 Nordeste 0 -- -- 67
2019-08-03 01:00:00 21.3 3 Norte 12 Este 0 -- -- 62
2019-08-03 00:00:00 21.3 2 Noroeste 6 Noroeste 0 -- -- 62
2019-08-02 23:00:00 23.2 0 Calma 12 Nordeste 0 -- -- 51
2019-08-02 22:00:00 24.2 4 Oeste 6 Noroeste 0 -- -- 41
2019-08-02 21:00:00 29.2 3 Noroeste 11 Noroeste 0 -- -- 32
2019-08-02 20:00:00 32 6 Norte 18 Noroeste 0 -- -- 28
2019-08-02 19:00:00 32.3 10 Noroeste 19 Norte 0 -- -- 27
2019-08-02 18:00:00 32.3 6 Norte 15 Norte 0 -- -- 27
2019-08-02 17:00:00 32 6 Nordeste 17 Norte 0 -- -- 29
2019-08-02 16:00:00 31.7 8 Norte 18 Noroeste 0 -- -- 30
2019-08-02 15:00:00 30.8 6 Norte 15 Noroeste 0 -- -- 35
2019-08-02 14:00:00 29.3 4 Sur 13 Sudeste 0 -- -- 39
2019-08-02 13:00:00 27.3 4 Este 13 Nordeste 0 -- -- 50
2019-08-02 12:00:00 24.9 3 Oeste 10 Nordeste 0 -- -- 57
2019-08-02 11:00:00 21.6 5 Norte 12 Nordeste 0 -- -- 65
2019-08-02 10:00:00 17.9 6 Este 13 Nordeste 0 -- -- 78
2019-08-02 09:00:00 15.7 4 Nordeste 10 Nordeste 0 -- -- 84
2019-08-02 08:00:00 14.1 0 Calma 6 Noroeste 0 -- -- 90
2019-08-02 07:00:00 13.4 2 Norte 5 Norte 0 -- -- 91
2019-08-02 06:00:00 13.8 2 Norte 7 Nordeste 0 -- -- 89
2019-08-02 05:00:00 14.5 3 Nordeste 9 Nordeste 0 -- -- 87
2019-08-02 04:00:00 14.9 2 Norte 12 Este 0 -- -- 85
2019-08-02 03:00:00 15.5 3 Nordeste 15 Nordeste 0 -- -- 83
2019-08-02 02:00:00 16.2 4 Norte 12 Norte 0 -- -- 81
2019-08-02 01:00:00 16.9 3 Norte 12 Este 0 -- -- 79
2019-08-02 00:00:00 17.8 4 Nordeste 12 Nordeste 0 -- -- 76
2019-08-01 23:00:00 19.3 4 Nordeste 20 Nordeste 0 -- -- 72
2019-08-01 22:00:00 22 5 Norte 17 Nordeste 0 -- -- 65
2019-08-01 21:00:00 24.7 8 Nordeste 24 Este 0 -- -- 57
2019-08-01 20:00:00 29.8 9 Norte 19 Noroeste 0 -- -- 41
2019-08-01 19:00:00 31.1 6 Noroeste 24 Oeste 0 -- -- 30
2019-08-01 18:00:00 29.7 7 Oeste 22 Noroeste 0 -- -- 34
2019-08-01 17:00:00 30 7 Noroeste 21 Noroeste 0 -- -- 35
2019-08-01 16:00:00 29.8 7 Noroeste 22 Noroeste 0 -- -- 37
2019-08-01 15:00:00 28.7 5 Norte 15 Noroeste 0 -- -- 44
2019-08-01 14:00:00 26.9 6 Noroeste 17 Oeste 0 -- -- 52
2019-08-01 13:00:00 25.9 7 Norte 17 Noroeste 0 -- -- 56
2019-08-01 12:00:00 24.3 6 Noroeste 14 Nordeste 0 -- -- 59
2019-08-01 11:00:00 21.2 4 Nordeste 12 Nordeste 0 -- -- 69
2019-08-01 10:00:00 18 5 Nordeste 14 Nordeste 0 -- -- 79
2019-08-01 09:00:00 16.2 5 Nordeste 15 Nordeste 0 -- -- 83
2019-08-01 08:00:00 14.6 3 Nordeste 10 Nordeste 0 -- -- 88
2019-08-01 07:00:00 14.1 4 Norte 14 Nordeste 0 -- -- 87
2019-08-01 06:00:00 14.4 3 Nordeste 13 Nordeste 0 -- -- 85
2019-08-01 05:00:00 14.8 3 Norte 13 Nordeste 0 -- -- 82
2019-08-01 04:00:00 15.5 4 Nordeste 18 Nordeste 0 -- -- 79
2019-08-01 03:00:00 16.1 5 Nordeste 17 Este 0 -- -- 76
2019-08-01 02:00:00 16.9 4 Norte 10 Norte 0 -- -- 72
2019-08-01 01:00:00 17.7 5 Nordeste 13 Nordeste 0 -- -- 70
2019-08-01 00:00:00 18.8 4 Norte 14 Norte 0 -- -- 66
2019-07-31 23:00:00 20.6 4 Norte 12 Norte 0 -- -- 56
2019-07-31 22:00:00 21.9 4 Norte 21 Nordeste 0 -- -- 51
2019-07-31 21:00:00 23.7 8 Nordeste 27 Nordeste 0 -- -- 47
2019-07-31 20:00:00 25.5 12 Nordeste 23 Nordeste 0 -- -- 40
2019-07-31 19:00:00 26.4 7 Nordeste 23 Norte 0 -- -- 38
2019-07-31 18:00:00 27.8 9 Norte 27 Norte 0 -- -- 35
2019-07-31 17:00:00 28.1 8 Nordeste 21 Nordeste 0 -- -- 36
2019-07-31 16:00:00 27.4 9 Nordeste 21 Nordeste 0 -- -- 38
2019-07-31 15:00:00 26 5 Nordeste 21 Nordeste 0 -- -- 42
2019-07-31 14:00:00 24.1 7 Este 22 Norte 0 -- -- 45
2019-07-31 13:00:00 22.2 8 Este 21 Nordeste 0 -- -- 51
2019-07-31 12:00:00 21.2 6 Nordeste 18 Nordeste 0 -- -- 50
2019-07-31 11:00:00 18 6 Nordeste 17 Este 0 -- -- 58
2019-07-31 10:00:00 14.3 7 Nordeste 17 Nordeste 0 -- -- 71
2019-07-31 09:00:00 12.2 6 Nordeste 15 Este 0 -- -- 81
2019-07-31 08:00:00 10.7 4 Nordeste 12 Este 0 -- -- 84
2019-07-31 07:00:00 10.6 3 Nordeste 13 Norte 0 -- -- 85
2019-07-31 06:00:00 10.9 2 Nordeste 10 Nordeste 0 -- -- 83
2019-07-31 05:00:00 11.3 3 Nordeste 8 Nordeste 0 -- -- 83
2019-07-31 04:00:00 11.9 3 Nordeste 20 Nordeste 0 -- -- 81
2019-07-31 03:00:00 12.5 4 Norte 15 Este 0 -- -- 80
2019-07-31 02:00:00 12.7 3 Nordeste 12 Nordeste 0 -- -- 78
2019-07-31 01:00:00 13.3 4 Nordeste 14 Nordeste 0 -- -- 74
2019-07-31 00:00:00 14.2 5 Norte 20 Norte 0 -- -- 70
2019-07-30 23:00:00 15.7 5 Norte 18 Nordeste 0 -- -- 65
2019-07-30 22:00:00 18 11 Nordeste 28 Nordeste 0 -- -- 57
2019-07-30 21:00:00 20.6 15 Nordeste 26 Este 0 -- -- 50
2019-07-30 20:00:00 24.1 8 Norte 20 Norte 0 -- -- 32
2019-07-30 19:00:00 24.6 8 Norte 22 Noroeste 0 -- -- 32
2019-07-30 18:00:00 25.4 9 Norte 21 Noroeste 0 -- -- 32
2019-07-30 17:00:00 25 9 Norte 20 Noroeste 0 -- -- 32
2019-07-30 16:00:00 24.2 6 Este 18 Sudeste 0 -- -- 43
2019-07-30 15:00:00 23.2 6 Sudeste 19 Noroeste 0 -- -- 44
2019-07-30 14:00:00 22 6 Sudeste 16 Nordeste 0 -- -- 49
2019-07-30 13:00:00 20.2 5 Noroeste 13 Este 0 -- -- 52
2019-07-30 12:00:00 18.5 6 Este 13 Nordeste 0 -- -- 59
2019-07-30 11:00:00 17.2 4 Norte 10 Norte 0 -- -- 66
2019-07-30 10:00:00 13.8 5 Norte 13 Oeste 0 -- -- 74
2019-07-30 09:00:00 13.3 9 Oeste 14 Oeste 0 -- -- 72
2019-07-30 08:00:00 11.2 2 Noroeste 7 Sudeste 0 -- -- 81
2019-07-30 07:00:00 11.5 2 Oeste 15 Noroeste 0 -- -- 74
2019-07-30 06:00:00 12.8 9 Noroeste 20 Noroeste 0 -- -- 71
2019-07-30 05:00:00 11.3 0 Calma 4 Oeste 0 -- -- 81
2019-07-30 04:00:00 11.5 0 Calma 11 Oeste 0 -- -- 74
2019-07-30 03:00:00 13.2 5 Noroeste 11 Noroeste 0 -- -- 67
2019-07-30 02:00:00 13.7 5 Noroeste 14 Noroeste 0 -- -- 64
2019-07-30 01:00:00 15.6 4 Norte 23 Oeste 0 -- -- 56
2019-07-30 00:00:00 17.1 15 Noroeste 30 Oeste 0 -- -- 50
2019-07-29 23:00:00 18.2 11 Noroeste 27 Noroeste 0 -- -- 43
2019-07-29 22:00:00 20.3 15 Noroeste 31 Noroeste 0 -- -- 42
2019-07-29 21:00:00 22.8 13 Noroeste 30 Oeste 0 -- -- 38
2019-07-29 20:00:00 25.5 17 Noroeste 35 Oeste 0 -- -- 34
2019-07-29 19:00:00 26.9 19 Oeste 38 Oeste 0 -- -- 31
2019-07-29 18:00:00 27.6 19 Oeste 46 Oeste 0 -- -- 23
2019-07-29 17:00:00 28.1 17 Oeste 34 Sudoeste 0 -- -- 27
2019-07-29 16:00:00 27.6 17 Oeste 36 Oeste 0 -- -- 28
2019-07-29 15:00:00 26.7 19 Oeste 42 Oeste 0 -- -- 31
2019-07-29 14:00:00 26 17 Oeste 37 Sudoeste 0 -- -- 43
2019-07-29 13:00:00 24.8 13 Oeste 32 Oeste 0 -- -- 48
2019-07-29 12:00:00 23.3 14 Oeste 30 Oeste 0 -- -- 50
2019-07-29 11:00:00 21.5 13 Oeste 24 Oeste 0 -- -- 51
2019-07-29 10:00:00 19.1 13 Oeste 23 Oeste 0 -- -- 49
2019-07-29 09:00:00 16.4 12 Sudoeste 22 Sudoeste 0 -- -- 49
2019-07-29 08:00:00 13.7 7 Sudeste 13 Sudeste 0 -- -- 62
2019-07-29 07:00:00 12.2 5 Sudeste 10 Sudeste 0 -- -- 67
2019-07-29 06:00:00 12.6 5 Sudeste 13 Sudeste 0 -- -- 70
2019-07-29 05:00:00 12.5 2 Este 11 Sudeste 0 -- -- 69
2019-07-29 04:00:00 13 7 Sudeste 10 Sudeste 0 -- -- 66
2019-07-29 03:00:00 13.3 6 Sudeste 10 Sudeste 0 -- -- 68
2019-07-29 02:00:00 13.6 0 Calma 5 Sudeste 0 -- -- 65
2019-07-29 01:00:00 14.4 2 Sur 4 Sudeste 0 -- -- 60
2019-07-29 00:00:00 15.4 0 Calma 3 Sudeste 0 -- -- 58
2019-07-28 23:00:00 16.9 0 Calma 8 Oeste 0 -- -- 54
2019-07-28 22:00:00 19.5 2 Sur 6 Sudoeste 0 -- -- 43
2019-07-28 21:00:00 24.6 4 Noroeste 10 Oeste 0 -- -- 34
2019-07-28 20:00:00 27 7 Oeste 15 Noroeste 0 -- -- 26
2019-07-28 19:00:00 27.2 6 Noroeste 18 Noroeste 0 -- -- 28
2019-07-28 18:00:00 26.8 8 Noroeste 22 Oeste 0 -- -- 30
2019-07-28 17:00:00 26.4 11 Oeste 22 Oeste 0 -- -- 32
2019-07-28 16:00:00 24.8 7 Noroeste 19 Nordeste 0 -- -- 37
2019-07-28 15:00:00 23.5 8 Nordeste 15 Norte 0 -- -- 40
2019-07-28 14:00:00 22.6 6 Sur 15 Sudeste 0 -- -- 44
2019-07-28 13:00:00 21 4 Noroeste 15 Noroeste 0 -- -- 50
2019-07-28 12:00:00 19.7 5 Nordeste 14 Nordeste 0 -- -- 60
2019-07-28 11:00:00 17.5 7 Este 15 Nordeste 0 -- -- 63
2019-07-28 10:00:00 14.1 5 Nordeste 13 Este 0 -- -- 79
2019-07-28 09:00:00 11.6 2 Norte 6 Noroeste 0 -- -- 89
2019-07-28 08:00:00 9.6 3 Noroeste 5 Noroeste 0 -- -- 95
2019-07-28 07:00:00 8.5 3 Oeste 5 Sudoeste 0 -- -- 92
2019-07-28 06:00:00 9.1 2 Noroeste 5 Noroeste 0 -- -- 92
2019-07-28 05:00:00 10.1 0 Calma 5 Sudeste 0 -- -- 91
2019-07-28 04:00:00 10.3 0 Calma 6 Sudeste 0 -- -- 90
2019-07-28 03:00:00 10.8 0 Calma 4 Sudoeste 0 -- -- 87
2019-07-28 02:00:00 12.5 2 Oeste 11 Este 0 -- -- 82
2019-07-28 01:00:00 13.1 4 Este 11 Sudeste 0 -- -- 79
2019-07-28 00:00:00 13.6 5 Este 17 Nordeste 0 -- -- 77
2019-07-27 23:00:00 14.5 6 Este 15 Este 0 -- -- 74
2019-07-26 12:00:00 22 5 Oeste 13 Noroeste 0 -- -- 65
2019-07-26 11:00:00 20.1 9 Noroeste 21 Noroeste 0 -- -- 70
2019-07-26 10:00:00 19.2 13 Oeste 22 Oeste 0 -- -- 69
2019-07-26 09:00:00 18.6 12 Oeste 23 Oeste 0 -- -- 76
2019-07-26 08:00:00 18.6 9 Noroeste 17 Oeste 0 -- -- 81
2019-07-26 07:00:00 17.9 8 Oeste 12 Oeste 0 -- -- 87
2019-07-26 06:00:00 18.8 4 Noroeste 8 Noroeste 0 -- -- 83
2019-07-26 05:00:00 19 2 Nordeste 9 Nordeste 0 -- -- 81
2019-07-26 04:00:00 19.1 2 Noroeste 13 Noroeste 0 -- -- 80
2019-07-26 03:00:00 19.7 6 Noroeste 13 Oeste 0 -- -- 77
2019-07-26 02:00:00 20.3 2 Nordeste 12 Nordeste 0 -- -- 73
2019-07-26 01:00:00 21.2 4 Nordeste 21 Nordeste 0 -- -- 68
2019-07-26 00:00:00 23.4 5 Noroeste 14 Noroeste 0 -- -- 55
2019-07-25 23:00:00 24.7 10 Noroeste 29 Noroeste 0 -- -- 48
2019-07-25 22:00:00 26.8 15 Noroeste 33 Oeste 0 -- -- 44
2019-07-25 21:00:00 29.2 21 Oeste 34 Oeste 0 -- -- 35
2019-07-25 20:00:00 31 15 Oeste 37 Oeste 0 -- -- 30
2019-07-25 19:00:00 32.2 14 Oeste 32 Oeste 0 -- -- 27
2019-07-25 18:00:00 33.7 18 Oeste 37 Oeste 0 -- -- 26
2019-07-25 17:00:00 32.1 23 Oeste 38 Oeste 0 -- -- 29
2019-07-25 16:00:00 33.8 16 Oeste 40 Sudoeste 0 -- -- 27
2019-07-25 15:00:00 34.1 10 Sudoeste 31 Oeste 0 -- -- 28
2019-07-25 14:00:00 32.6 13 Sudoeste 32 Sudoeste 0 -- -- 30
2019-07-25 13:00:00 31.9 11 Sudoeste 27 Sudoeste 0 -- -- 32
2019-07-25 12:00:00 30.3 8 Sudoeste 19 Sudoeste 0 -- -- 35
2019-07-25 11:00:00 27.8 5 Sudeste 15 Sudeste 0 -- -- 47
2019-07-25 10:00:00 23.5 8 Sudeste 14 Sudeste 0 -- -- 60
2019-07-25 09:00:00 21.6 2 Este 8 Sudeste 0 -- -- 65
2019-07-25 08:00:00 20 4 Oeste 12 Sudoeste 0 -- -- 60
2019-07-25 07:00:00 18.9 3 Sudoeste 12 Sudoeste 0 -- -- 63
2019-07-25 06:00:00 19.9 4 Sudoeste 10 Sudoeste 0 -- -- 66
2019-07-25 05:00:00 20.4 3 Sudoeste 12 Sudoeste 0 -- -- 62
2019-07-25 04:00:00 21.6 2 Sudeste 10 Sudoeste 0 -- -- 61
2019-07-25 03:00:00 22 4 Sudeste 15 Oeste 0 -- -- 58
2019-07-25 02:00:00 21.2 3 Sudeste 12 Oeste 0 -- -- 59
2019-07-25 01:00:00 21.8 0 Calma -- -- 0 -- -- 60
2019-07-25 00:00:00 23.5 0 Calma 13 Sudoeste 0 -- -- 51
2019-07-24 23:00:00 25.7 9 Sudoeste 14 Sudoeste 0 -- -- 44
2019-07-24 22:00:00 27.3 8 Sudoeste 12 Sudoeste 0 -- -- 43
2019-07-24 21:00:00 30.7 3 Sudoeste 14 Oeste 0 -- -- 41
2019-07-24 20:00:00 33.9 9 Oeste 23 Sudoeste 0 -- -- 31
2019-07-24 19:00:00 35.7 11 Sudoeste 31 Oeste 0 -- -- 28
2019-07-24 18:00:00 35.8 13 Sudoeste 32 Sudoeste 0 -- -- 28
2019-07-24 17:00:00 35.9 14 Sudoeste 33 Noroeste 0 -- -- 28
2019-07-24 16:00:00 35.3 11 Sur 32 Sudoeste 0 -- -- 32
2019-07-24 15:00:00 33.8 9 Sur 24 Sudeste 0 -- -- 35
2019-07-24 14:00:00 33 8 Sur 27 Sudeste 0 -- -- 36
2019-07-24 13:00:00 31 12 Sudeste 19 Sudeste 0 -- -- 49
2019-07-24 12:00:00 29 8 Sudeste 18 Sudeste 0 -- -- 50
2019-07-24 11:00:00 25.5 12 Sudeste 24 Sudeste 0 -- -- 61
2019-07-24 10:00:00 21.6 12 Sudeste 16 Sudeste 0 -- -- 73
2019-07-24 09:00:00 19.1 4 Sudeste 6 Sudeste 0 -- -- 79
2019-07-24 08:00:00 17.1 4 Noroeste 9 Noroeste 0 -- -- 86
2019-07-24 07:00:00 16.6 3 Oeste 6 Noroeste 0 -- -- 88
2019-07-24 06:00:00 17 0 Calma 5 Sudoeste 0 -- -- 85
2019-07-24 05:00:00 17.6 3 Sudeste 5 Sudeste 0 -- -- 84
2019-07-24 04:00:00 18.7 3 Sur 15 Sudeste 0 -- -- 80
2019-07-24 03:00:00 19.5 5 Sudeste 13 Sudeste 0 -- -- 74
2019-07-24 02:00:00 20.7 6 Sudeste 20 Sudeste 0 -- -- 70
2019-07-24 01:00:00 21.5 4 Noroeste 20 Sudoeste 0 -- -- 69
2019-07-24 00:00:00 21 18 Sudeste 51 Sur 0 -- -- 71
2019-07-23 23:00:00 22.8 19 Sudeste 39 Sur 0 -- -- 65
2019-07-23 22:00:00 22.2 3 Sur 17 Sudoeste 0 -- -- 77
2019-07-23 21:00:00 22.1 6 Sudeste 70 Sudoeste 4.6 -- -- 72
2019-07-23 20:00:00 29.8 15 Sur 50 Sudoeste 0 -- -- 43
2019-07-23 19:00:00 30.9 16 Sudeste 44 Sudeste 0 -- -- 40
2019-07-23 18:00:00 36.1 6 Sudoeste 23 Sudeste 0 -- -- 29
2019-07-23 17:00:00 35.2 9 Sur 24 Sudeste 0 -- -- 31
2019-07-23 16:00:00 34.8 6 Sudoeste 17 Sudoeste 0 -- -- 31
2019-07-23 15:00:00 32.6 8 Este 23 Este 0 -- -- 40
2019-07-23 14:00:00 31.4 9 Sur 29 Sudoeste 0 -- -- 40
2019-07-23 13:00:00 29.4 9 Sudoeste 22 Sudoeste 0 -- -- 40
2019-07-23 12:00:00 28.3 14 Sudeste 24 Sudeste 0 -- -- 47
2019-07-23 11:00:00 27.3 4 Sudeste 14 Nordeste 0 -- -- 50
2019-07-23 10:00:00 24 4 Este 15 Nordeste 0 -- -- 55
2019-07-23 09:00:00 22.7 9 Sudoeste 27 Sudoeste 0 -- -- 58
2019-07-23 08:00:00 20.8 8 Sur 20 Sudoeste 0 -- -- 63
2019-07-23 07:00:00 18.8 4 Sur 9 Oeste 0 -- -- 70
2019-07-23 06:00:00 20 3 Noroeste 16 Sudoeste 0 -- -- 68
2019-07-23 05:00:00 19.9 8 Oeste 13 Oeste 0 -- -- 70
2019-07-23 04:00:00 20 6 Sudeste 11 Sudeste 0 -- -- 69
2019-07-23 03:00:00 20.4 0 Calma 18 Sur 0 -- -- 66
2019-07-23 02:00:00 21.2 6 Sur 21 Sur 0 -- -- 63
2019-07-23 01:00:00 21.9 2 Nordeste 16 Noroeste 0 -- -- 60
2019-07-23 00:00:00 22.8 8 Norte 18 Noroeste 0 -- -- 57
2019-07-22 23:00:00 23.7 7 Noroeste 30 Oeste 0 -- -- 53
2019-07-22 22:00:00 25.2 11 Noroeste 27 Oeste 0 -- -- 43
2019-07-22 21:00:00 25.7 14 Noroeste 42 Sudoeste 0.4 -- -- 46
2019-07-22 20:00:00 28 20 Sudoeste 39 Sudoeste 0 -- -- 45
2019-07-22 19:00:00 31.2 10 Sudeste 27 Este 0 -- -- 34
2019-07-22 18:00:00 34.4 0 Calma 21 Oeste 0 -- -- 32
2019-07-22 17:00:00 35.8 0 Calma 13 Norte 0 -- -- 30
2019-07-22 16:00:00 36.7 4 Noroeste 13 Sudeste 0 -- -- 27
2019-07-22 15:00:00 36.3 4 Sudeste 12 Nordeste 0 -- -- 28
2019-07-22 14:00:00 35 5 Sudeste 14 Este 0 -- -- 31
2019-07-22 13:00:00 33.5 5 Sudeste 13 Sudeste 0 -- -- 39
2019-07-22 12:00:00 30.8 4 Este 17 Sudeste 0 -- -- 39
2019-07-22 11:00:00 27.8 6 Este 17 Sudeste 0 -- -- 46
2019-07-22 10:00:00 22.7 3 Nordeste 8 Noroeste 0 -- -- 68
2019-07-22 09:00:00 19.5 3 Noroeste 7 Noroeste 0 -- -- 82
2019-07-22 08:00:00 17.7 5 Noroeste 10 Noroeste 0 -- -- 89
2019-07-22 07:00:00 17.2 6 Noroeste 11 Noroeste 0 -- -- 90
2019-07-22 06:00:00 17.6 2 Noroeste 9 Este 0 -- -- 87
2019-07-22 05:00:00 18.5 2 Nordeste 9 Nordeste 0 -- -- 84
2019-07-22 04:00:00 18.7 3 Norte 7 Nordeste 0 -- -- 83
2019-07-22 03:00:00 19.6 3 Norte 9 Nordeste 0 -- -- 80
2019-07-22 02:00:00 20.6 4 Nordeste 10 Este 0 -- -- 77
2019-07-22 01:00:00 21.2 3 Nordeste 14 Noroeste 0 -- -- 75
2019-07-22 00:00:00 22.4 5 Norte 17 Norte 0 -- -- 70
2019-07-21 23:00:00 24.4 6 Norte 19 Norte 0 -- -- 65
2019-07-21 22:00:00 28.9 8 Nordeste 21 Nordeste 0 -- -- 48
2019-07-21 21:00:00 31.9 0 Calma 9 Noroeste 0 -- -- 39
2019-07-21 20:00:00 34.4 5 Norte 13 Norte 0 -- -- 29
2019-07-21 19:00:00 34.9 6 Norte 15 Noroeste 0 -- -- 28
2019-07-21 18:00:00 34.8 5 Norte 17 Noroeste 0 -- -- 28
2019-07-21 17:00:00 34.3 5 Norte 17 Norte 0 -- -- 31
2019-07-21 16:00:00 33.9 8 Noroeste 20 Noroeste 0 -- -- 33
2019-07-21 15:00:00 32.7 6 Norte 21 Norte 0 -- -- 39
2019-07-21 14:00:00 31.6 8 Norte 22 Noroeste 0 -- -- 43
2019-07-21 13:00:00 29.3 8 Norte 20 Norte 0 -- -- 50
2019-07-21 12:00:00 27.3 6 Nordeste 11 Nordeste 0 -- -- 57
2019-07-21 11:00:00 24.3 4 Nordeste 12 Nordeste 0 -- -- 63
2019-07-21 10:00:00 20.5 5 Este 13 Este 0 -- -- 77
2019-07-21 09:00:00 18.3 5 Este 10 Sudeste 0 -- -- 83
2019-07-21 08:00:00 16.9 0 Calma 5 Este 0 -- -- 86
2019-07-21 07:00:00 16.4 2 Nordeste 14 Nordeste 0 -- -- 86
2019-07-21 06:00:00 17 5 Nordeste 16 Este 0 -- -- 85
2019-07-21 05:00:00 17.2 8 Nordeste 19 Nordeste 0 -- -- 85
2019-07-21 04:00:00 17.5 5 Nordeste 14 Nordeste -- -- -- 83
2019-07-21 03:00:00 17.8 4 Norte 13 Nordeste 0 -- -- 82
2019-07-21 02:00:00 18.2 4 Nordeste 15 Este 0 -- -- 81
2019-07-21 01:00:00 18.6 8 Nordeste 22 Nordeste 0 -- -- 80
2019-07-21 00:00:00 19.3 6 Nordeste 21 Nordeste 0 -- -- 77